<?xml version="1.0" encoding="UTF-8" standalone="no" ?>
<gpx xmlns="http://www.topografix.com/GPX/1/1" xmlns:xsi="http://www.w3.org/2001/XMLSchema-instance" xsi:schemaLocation="http://www.topografix.com/GPX/1/1 http://www.topografix.com/GPX/1/1/gpx.xsd" version="1.1" creator="VisuGPX - https://www.visugpx.com">
  <metadata>
    <name>Bat Quebe-64-Ski</name>
    <desc><![CDATA[Jolie boucle dans la vallée d'ossau]]></desc>
  </metadata>
  <trk>
    <name><![CDATA[2022-02-06 Bat Quebe]]></name>
    <desc><![CDATA[<p>Heure de départ: 09:34 6 févr. 2022<br/>Heure d'arrivée: 13:59 6 févr. 2022<br/>Distance: 9,2 km (04:24)<br/>Temps déplacement: 02:06<br/>Vitesse moyenne: 2,08 km/h<br/>Vitesse moyenne mouv.: 4,33 km/h<br/>Vitesse Max.: 30,36 km/h<br/>Altitude minimale: 1391 m<br/>Altitude maximale: 2511 m<br/>Vitesse de montée: 379,9 m/h<br/>Vitesse de descente: -722,2 m/h<br/>Gain d'altitude: 1099 m<br/>Perte d'altitude: -1094 m<br/>Temps de montée: 02:53<br/>Temps de descente: 01:30<br/></p><hr align="center" width="480" style="height: 2px; width: 517px"/>]]></desc>
    <trkseg>
      <trkpt lat="42.8362" lon="-0.38362">
        <ele>1391</ele>
        <time>2022-02-06T08:34:43Z</time>
      </trkpt>
      <trkpt lat="42.83618" lon="-0.38337">
        <ele>1397</ele>
        <time>2022-02-06T08:35:44Z</time>
      </trkpt>
      <trkpt lat="42.83615" lon="-0.38313">
        <ele>1402</ele>
        <time>2022-02-06T08:36:41Z</time>
      </trkpt>
      <trkpt lat="42.83607" lon="-0.38289">
        <ele>1411</ele>
        <time>2022-02-06T08:37:14Z</time>
      </trkpt>
      <trkpt lat="42.83595" lon="-0.3827">
        <ele>1420</ele>
        <time>2022-02-06T08:37:48Z</time>
      </trkpt>
      <trkpt lat="42.83606" lon="-0.38249">
        <ele>1426.3</ele>
        <time>2022-02-06T08:38:28Z</time>
      </trkpt>
      <trkpt lat="42.83621" lon="-0.38234">
        <ele>1425</ele>
        <time>2022-02-06T08:38:59Z</time>
      </trkpt>
      <trkpt lat="42.83635" lon="-0.38218">
        <ele>1439</ele>
        <time>2022-02-06T08:39:39Z</time>
      </trkpt>
      <trkpt lat="42.83651" lon="-0.38206">
        <ele>1435</ele>
        <time>2022-02-06T08:40:14Z</time>
      </trkpt>
      <trkpt lat="42.83668" lon="-0.38197">
        <ele>1434.03</ele>
        <time>2022-02-06T08:40:46Z</time>
      </trkpt>
      <trkpt lat="42.83685" lon="-0.38188">
        <ele>1451</ele>
        <time>2022-02-06T08:41:09Z</time>
      </trkpt>
      <trkpt lat="42.83703" lon="-0.38181">
        <ele>1454</ele>
        <time>2022-02-06T08:41:34Z</time>
      </trkpt>
      <trkpt lat="42.83716" lon="-0.38165">
        <ele>1466.66</ele>
        <time>2022-02-06T08:42:56Z</time>
      </trkpt>
      <trkpt lat="42.83735" lon="-0.38161">
        <ele>1467</ele>
        <time>2022-02-06T08:43:19Z</time>
      </trkpt>
      <trkpt lat="42.83744" lon="-0.38138">
        <ele>1475.4</ele>
        <time>2022-02-06T08:44:01Z</time>
      </trkpt>
      <trkpt lat="42.83758" lon="-0.38122">
        <ele>1481</ele>
        <time>2022-02-06T08:44:26Z</time>
      </trkpt>
      <trkpt lat="42.83774" lon="-0.38111">
        <ele>1489.4</ele>
        <time>2022-02-06T08:44:55Z</time>
      </trkpt>
      <trkpt lat="42.83789" lon="-0.38095">
        <ele>1493</ele>
        <time>2022-02-06T08:45:24Z</time>
      </trkpt>
      <trkpt lat="42.83803" lon="-0.38081">
        <ele>1500.99</ele>
        <time>2022-02-06T08:45:55Z</time>
      </trkpt>
      <trkpt lat="42.83812" lon="-0.38058">
        <ele>1496</ele>
        <time>2022-02-06T08:46:23Z</time>
      </trkpt>
      <trkpt lat="42.83824" lon="-0.3804">
        <ele>1502</ele>
        <time>2022-02-06T08:46:50Z</time>
      </trkpt>
      <trkpt lat="42.83805" lon="-0.3804">
        <ele>1508.3</ele>
        <time>2022-02-06T08:47:35Z</time>
      </trkpt>
      <trkpt lat="42.83814" lon="-0.38018">
        <ele>1507</ele>
        <time>2022-02-06T08:48:12Z</time>
      </trkpt>
      <trkpt lat="42.8382" lon="-0.37994">
        <ele>1512</ele>
        <time>2022-02-06T08:48:41Z</time>
      </trkpt>
      <trkpt lat="42.83822" lon="-0.37969">
        <ele>1515.97</ele>
        <time>2022-02-06T08:49:03Z</time>
      </trkpt>
      <trkpt lat="42.83819" lon="-0.37944">
        <ele>1520.2</ele>
        <time>2022-02-06T08:49:31Z</time>
      </trkpt>
      <trkpt lat="42.83823" lon="-0.3792">
        <ele>1522</ele>
        <time>2022-02-06T08:50:04Z</time>
      </trkpt>
      <trkpt lat="42.83823" lon="-0.37895">
        <ele>1529</ele>
        <time>2022-02-06T08:50:28Z</time>
      </trkpt>
      <trkpt lat="42.83828" lon="-0.37871">
        <ele>1537</ele>
        <time>2022-02-06T08:51:00Z</time>
      </trkpt>
      <trkpt lat="42.8383" lon="-0.37846">
        <ele>1545</ele>
        <time>2022-02-06T08:51:26Z</time>
      </trkpt>
      <trkpt lat="42.83836" lon="-0.37822">
        <ele>1535</ele>
        <time>2022-02-06T08:51:53Z</time>
      </trkpt>
      <trkpt lat="42.83844" lon="-0.37799">
        <ele>1540</ele>
        <time>2022-02-06T08:52:14Z</time>
      </trkpt>
      <trkpt lat="42.83848" lon="-0.37774">
        <ele>1546.81</ele>
        <time>2022-02-06T08:52:33Z</time>
      </trkpt>
      <trkpt lat="42.83854" lon="-0.37749">
        <ele>1552.6</ele>
        <time>2022-02-06T08:52:52Z</time>
      </trkpt>
      <trkpt lat="42.83858" lon="-0.37724">
        <ele>1555</ele>
        <time>2022-02-06T08:53:14Z</time>
      </trkpt>
      <trkpt lat="42.83865" lon="-0.37701">
        <ele>1546</ele>
        <time>2022-02-06T08:53:39Z</time>
      </trkpt>
      <trkpt lat="42.83865" lon="-0.37676">
        <ele>1552</ele>
        <time>2022-02-06T08:53:57Z</time>
      </trkpt>
      <trkpt lat="42.83869" lon="-0.37652">
        <ele>1556</ele>
        <time>2022-02-06T08:54:19Z</time>
      </trkpt>
      <trkpt lat="42.83874" lon="-0.37627">
        <ele>1559</ele>
        <time>2022-02-06T08:54:40Z</time>
      </trkpt>
      <trkpt lat="42.83879" lon="-0.37602">
        <ele>1563</ele>
        <time>2022-02-06T08:55:04Z</time>
      </trkpt>
      <trkpt lat="42.83883" lon="-0.37578">
        <ele>1567</ele>
        <time>2022-02-06T08:55:26Z</time>
      </trkpt>
      <trkpt lat="42.8388" lon="-0.37553">
        <ele>1569.92</ele>
        <time>2022-02-06T08:55:47Z</time>
      </trkpt>
      <trkpt lat="42.83894" lon="-0.37536">
        <ele>1572.99</ele>
        <time>2022-02-06T08:56:16Z</time>
      </trkpt>
      <trkpt lat="42.83911" lon="-0.37542">
        <ele>1573</ele>
        <time>2022-02-06T08:56:55Z</time>
      </trkpt>
      <trkpt lat="42.8391" lon="-0.37517">
        <ele>1576</ele>
        <time>2022-02-06T09:02:02Z</time>
      </trkpt>
      <trkpt lat="42.83905" lon="-0.37493">
        <ele>1582</ele>
        <time>2022-02-06T09:02:24Z</time>
      </trkpt>
      <trkpt lat="42.83905" lon="-0.37468">
        <ele>1587.95</ele>
        <time>2022-02-06T09:02:55Z</time>
      </trkpt>
      <trkpt lat="42.83902" lon="-0.37443">
        <ele>1590.8</ele>
        <time>2022-02-06T09:03:24Z</time>
      </trkpt>
      <trkpt lat="42.8391" lon="-0.3742">
        <ele>1592</ele>
        <time>2022-02-06T09:04:40Z</time>
      </trkpt>
      <trkpt lat="42.83922" lon="-0.37401">
        <ele>1605</ele>
        <time>2022-02-06T09:05:06Z</time>
      </trkpt>
      <trkpt lat="42.83925" lon="-0.37377">
        <ele>1609</ele>
        <time>2022-02-06T09:05:42Z</time>
      </trkpt>
      <trkpt lat="42.83935" lon="-0.37355">
        <ele>1613</ele>
        <time>2022-02-06T09:06:21Z</time>
      </trkpt>
      <trkpt lat="42.83951" lon="-0.37344">
        <ele>1624</ele>
        <time>2022-02-06T09:06:57Z</time>
      </trkpt>
      <trkpt lat="42.83958" lon="-0.37321">
        <ele>1628</ele>
        <time>2022-02-06T09:07:24Z</time>
      </trkpt>
      <trkpt lat="42.83956" lon="-0.37296">
        <ele>1632</ele>
        <time>2022-02-06T09:07:54Z</time>
      </trkpt>
      <trkpt lat="42.83955" lon="-0.37271">
        <ele>1636</ele>
        <time>2022-02-06T09:08:23Z</time>
      </trkpt>
      <trkpt lat="42.83972" lon="-0.37259">
        <ele>1636</ele>
        <time>2022-02-06T09:09:04Z</time>
      </trkpt>
      <trkpt lat="42.83984" lon="-0.3724">
        <ele>1651</ele>
        <time>2022-02-06T09:09:30Z</time>
      </trkpt>
      <trkpt lat="42.83995" lon="-0.37221">
        <ele>1652.82</ele>
        <time>2022-02-06T09:10:07Z</time>
      </trkpt>
      <trkpt lat="42.83996" lon="-0.37195">
        <ele>1653</ele>
        <time>2022-02-06T09:10:30Z</time>
      </trkpt>
      <trkpt lat="42.83997" lon="-0.37171">
        <ele>1654</ele>
        <time>2022-02-06T09:10:49Z</time>
      </trkpt>
      <trkpt lat="42.84002" lon="-0.37147">
        <ele>1668</ele>
        <time>2022-02-06T09:11:09Z</time>
      </trkpt>
      <trkpt lat="42.84003" lon="-0.37121">
        <ele>1670</ele>
        <time>2022-02-06T09:11:28Z</time>
      </trkpt>
      <trkpt lat="42.84005" lon="-0.37097">
        <ele>1670</ele>
        <time>2022-02-06T09:11:52Z</time>
      </trkpt>
      <trkpt lat="42.84017" lon="-0.37078">
        <ele>1671</ele>
        <time>2022-02-06T09:12:23Z</time>
      </trkpt>
      <trkpt lat="42.84027" lon="-0.37057">
        <ele>1671</ele>
        <time>2022-02-06T09:12:56Z</time>
      </trkpt>
      <trkpt lat="42.84032" lon="-0.37033">
        <ele>1686</ele>
        <time>2022-02-06T09:13:24Z</time>
      </trkpt>
      <trkpt lat="42.84038" lon="-0.37009">
        <ele>1687</ele>
        <time>2022-02-06T09:13:47Z</time>
      </trkpt>
      <trkpt lat="42.84036" lon="-0.36984">
        <ele>1688</ele>
        <time>2022-02-06T09:14:10Z</time>
      </trkpt>
      <trkpt lat="42.84044" lon="-0.36962">
        <ele>1687</ele>
        <time>2022-02-06T09:14:33Z</time>
      </trkpt>
      <trkpt lat="42.84046" lon="-0.36936">
        <ele>1687</ele>
        <time>2022-02-06T09:14:57Z</time>
      </trkpt>
      <trkpt lat="42.8406" lon="-0.3692">
        <ele>1702</ele>
        <time>2022-02-06T09:15:35Z</time>
      </trkpt>
      <trkpt lat="42.8407" lon="-0.36899">
        <ele>1700</ele>
        <time>2022-02-06T09:16:03Z</time>
      </trkpt>
      <trkpt lat="42.84079" lon="-0.36877">
        <ele>1699</ele>
        <time>2022-02-06T09:16:26Z</time>
      </trkpt>
      <trkpt lat="42.84087" lon="-0.36854">
        <ele>1714</ele>
        <time>2022-02-06T09:16:55Z</time>
      </trkpt>
      <trkpt lat="42.84097" lon="-0.36832">
        <ele>1715.82</ele>
        <time>2022-02-06T09:17:30Z</time>
      </trkpt>
      <trkpt lat="42.84107" lon="-0.36812">
        <ele>1716</ele>
        <time>2022-02-06T09:17:58Z</time>
      </trkpt>
      <trkpt lat="42.84113" lon="-0.36788">
        <ele>1730</ele>
        <time>2022-02-06T09:18:27Z</time>
      </trkpt>
      <trkpt lat="42.84121" lon="-0.36766">
        <ele>1729</ele>
        <time>2022-02-06T09:18:53Z</time>
      </trkpt>
      <trkpt lat="42.84128" lon="-0.36743">
        <ele>1728</ele>
        <time>2022-02-06T09:19:18Z</time>
      </trkpt>
      <trkpt lat="42.84136" lon="-0.3672">
        <ele>1728</ele>
        <time>2022-02-06T09:19:44Z</time>
      </trkpt>
      <trkpt lat="42.84145" lon="-0.36698">
        <ele>1740</ele>
        <time>2022-02-06T09:20:13Z</time>
      </trkpt>
      <trkpt lat="42.8415" lon="-0.36673">
        <ele>1739</ele>
        <time>2022-02-06T09:20:35Z</time>
      </trkpt>
      <trkpt lat="42.84156" lon="-0.36649">
        <ele>1738</ele>
        <time>2022-02-06T09:21:01Z</time>
      </trkpt>
      <trkpt lat="42.84163" lon="-0.36626">
        <ele>1737</ele>
        <time>2022-02-06T09:21:24Z</time>
      </trkpt>
      <trkpt lat="42.84173" lon="-0.36605">
        <ele>1752</ele>
        <time>2022-02-06T09:21:57Z</time>
      </trkpt>
      <trkpt lat="42.84178" lon="-0.3658">
        <ele>1753.95</ele>
        <time>2022-02-06T09:22:21Z</time>
      </trkpt>
      <trkpt lat="42.84181" lon="-0.36555">
        <ele>1755.4</ele>
        <time>2022-02-06T09:22:44Z</time>
      </trkpt>
      <trkpt lat="42.84181" lon="-0.3653">
        <ele>1756</ele>
        <time>2022-02-06T09:23:14Z</time>
      </trkpt>
      <trkpt lat="42.84184" lon="-0.36506">
        <ele>1759</ele>
        <time>2022-02-06T09:23:40Z</time>
      </trkpt>
      <trkpt lat="42.84194" lon="-0.36485">
        <ele>1761</ele>
        <time>2022-02-06T09:24:11Z</time>
      </trkpt>
      <trkpt lat="42.84199" lon="-0.36461">
        <ele>1776</ele>
        <time>2022-02-06T09:24:38Z</time>
      </trkpt>
      <trkpt lat="42.84198" lon="-0.36436">
        <ele>1778</ele>
        <time>2022-02-06T09:25:03Z</time>
      </trkpt>
      <trkpt lat="42.84205" lon="-0.36414">
        <ele>1777</ele>
        <time>2022-02-06T09:25:32Z</time>
      </trkpt>
      <trkpt lat="42.84213" lon="-0.36391">
        <ele>1777</ele>
        <time>2022-02-06T09:25:59Z</time>
      </trkpt>
      <trkpt lat="42.84214" lon="-0.36366">
        <ele>1775</ele>
        <time>2022-02-06T09:26:28Z</time>
      </trkpt>
      <trkpt lat="42.84215" lon="-0.3634">
        <ele>1775</ele>
        <time>2022-02-06T09:26:50Z</time>
      </trkpt>
      <trkpt lat="42.8422" lon="-0.36316">
        <ele>1777</ele>
        <time>2022-02-06T09:27:17Z</time>
      </trkpt>
      <trkpt lat="42.84223" lon="-0.36291">
        <ele>1791.91</ele>
        <time>2022-02-06T09:27:47Z</time>
      </trkpt>
      <trkpt lat="42.84219" lon="-0.36266">
        <ele>1786</ele>
        <time>2022-02-06T09:28:15Z</time>
      </trkpt>
      <trkpt lat="42.84222" lon="-0.36242">
        <ele>1803.7</ele>
        <time>2022-02-06T09:28:43Z</time>
      </trkpt>
      <trkpt lat="42.84225" lon="-0.36217">
        <ele>1809.99</ele>
        <time>2022-02-06T09:29:09Z</time>
      </trkpt>
      <trkpt lat="42.8423" lon="-0.36192">
        <ele>1815.46</ele>
        <time>2022-02-06T09:29:35Z</time>
      </trkpt>
      <trkpt lat="42.8424" lon="-0.36171">
        <ele>1816</ele>
        <time>2022-02-06T09:30:06Z</time>
      </trkpt>
      <trkpt lat="42.84244" lon="-0.36146">
        <ele>1820</ele>
        <time>2022-02-06T09:30:41Z</time>
      </trkpt>
      <trkpt lat="42.84244" lon="-0.36121">
        <ele>1819</ele>
        <time>2022-02-06T09:31:03Z</time>
      </trkpt>
      <trkpt lat="42.84249" lon="-0.36097">
        <ele>1816</ele>
        <time>2022-02-06T09:31:27Z</time>
      </trkpt>
      <trkpt lat="42.84251" lon="-0.36072">
        <ele>1834</ele>
        <time>2022-02-06T09:31:55Z</time>
      </trkpt>
      <trkpt lat="42.84251" lon="-0.36048">
        <ele>1835</ele>
        <time>2022-02-06T09:32:18Z</time>
      </trkpt>
      <trkpt lat="42.84253" lon="-0.36023">
        <ele>1837</ele>
        <time>2022-02-06T09:32:45Z</time>
      </trkpt>
      <trkpt lat="42.84252" lon="-0.35998">
        <ele>1838.95</ele>
        <time>2022-02-06T09:33:13Z</time>
      </trkpt>
      <trkpt lat="42.84255" lon="-0.35973">
        <ele>1839</ele>
        <time>2022-02-06T09:33:39Z</time>
      </trkpt>
      <trkpt lat="42.84268" lon="-0.35955">
        <ele>1842</ele>
        <time>2022-02-06T09:34:29Z</time>
      </trkpt>
      <trkpt lat="42.84274" lon="-0.35931">
        <ele>1845</ele>
        <time>2022-02-06T09:34:56Z</time>
      </trkpt>
      <trkpt lat="42.84277" lon="-0.35906">
        <ele>1848</ele>
        <time>2022-02-06T09:35:27Z</time>
      </trkpt>
      <trkpt lat="42.8428" lon="-0.35881">
        <ele>1865</ele>
        <time>2022-02-06T09:36:13Z</time>
      </trkpt>
      <trkpt lat="42.84283" lon="-0.35856">
        <ele>1869</ele>
        <time>2022-02-06T09:36:39Z</time>
      </trkpt>
      <trkpt lat="42.8429" lon="-0.35833">
        <ele>1871.1</ele>
        <time>2022-02-06T09:37:13Z</time>
      </trkpt>
      <trkpt lat="42.84307" lon="-0.35824">
        <ele>1889.85</ele>
        <time>2022-02-06T09:38:18Z</time>
      </trkpt>
      <trkpt lat="42.84314" lon="-0.358">
        <ele>1892</ele>
        <time>2022-02-06T09:38:45Z</time>
      </trkpt>
      <trkpt lat="42.84313" lon="-0.35775">
        <ele>1890</ele>
        <time>2022-02-06T09:39:13Z</time>
      </trkpt>
      <trkpt lat="42.84314" lon="-0.3575">
        <ele>1890</ele>
        <time>2022-02-06T09:42:14Z</time>
      </trkpt>
      <trkpt lat="42.84328" lon="-0.35735">
        <ele>1890</ele>
        <time>2022-02-06T09:42:49Z</time>
      </trkpt>
      <trkpt lat="42.84342" lon="-0.35719">
        <ele>1899</ele>
        <time>2022-02-06T09:43:16Z</time>
      </trkpt>
      <trkpt lat="42.84351" lon="-0.35697">
        <ele>1899</ele>
        <time>2022-02-06T09:43:47Z</time>
      </trkpt>
      <trkpt lat="42.84351" lon="-0.35672">
        <ele>1900</ele>
        <time>2022-02-06T09:44:21Z</time>
      </trkpt>
      <trkpt lat="42.84353" lon="-0.35647">
        <ele>1904</ele>
        <time>2022-02-06T09:44:43Z</time>
      </trkpt>
      <trkpt lat="42.84352" lon="-0.35622">
        <ele>1903</ele>
        <time>2022-02-06T09:45:17Z</time>
      </trkpt>
      <trkpt lat="42.84363" lon="-0.35603">
        <ele>1919</ele>
        <time>2022-02-06T09:46:03Z</time>
      </trkpt>
      <trkpt lat="42.8437" lon="-0.3558">
        <ele>1925.81</ele>
        <time>2022-02-06T09:46:42Z</time>
      </trkpt>
      <trkpt lat="42.84367" lon="-0.35555">
        <ele>1930.9</ele>
        <time>2022-02-06T09:47:17Z</time>
      </trkpt>
      <trkpt lat="42.84367" lon="-0.3553">
        <ele>1933</ele>
        <time>2022-02-06T09:47:54Z</time>
      </trkpt>
      <trkpt lat="42.84375" lon="-0.35507">
        <ele>1940</ele>
        <time>2022-02-06T09:48:25Z</time>
      </trkpt>
      <trkpt lat="42.84382" lon="-0.35483">
        <ele>1944</ele>
        <time>2022-02-06T09:48:59Z</time>
      </trkpt>
      <trkpt lat="42.84389" lon="-0.3546">
        <ele>1947</ele>
        <time>2022-02-06T09:49:39Z</time>
      </trkpt>
      <trkpt lat="42.84407" lon="-0.35456">
        <ele>1958</ele>
        <time>2022-02-06T09:50:24Z</time>
      </trkpt>
      <trkpt lat="42.8442" lon="-0.35438">
        <ele>1976</ele>
        <time>2022-02-06T09:51:04Z</time>
      </trkpt>
      <trkpt lat="42.8443" lon="-0.35417">
        <ele>1976</ele>
        <time>2022-02-06T09:51:41Z</time>
      </trkpt>
      <trkpt lat="42.84435" lon="-0.35393">
        <ele>1979</ele>
        <time>2022-02-06T09:52:18Z</time>
      </trkpt>
      <trkpt lat="42.84442" lon="-0.3537">
        <ele>1981</ele>
        <time>2022-02-06T09:52:55Z</time>
      </trkpt>
      <trkpt lat="42.84445" lon="-0.35346">
        <ele>2001</ele>
        <time>2022-02-06T09:53:26Z</time>
      </trkpt>
      <trkpt lat="42.84449" lon="-0.35321">
        <ele>2005</ele>
        <time>2022-02-06T09:53:55Z</time>
      </trkpt>
      <trkpt lat="42.84458" lon="-0.35299">
        <ele>2007</ele>
        <time>2022-02-06T09:54:34Z</time>
      </trkpt>
      <trkpt lat="42.84468" lon="-0.35278">
        <ele>2007</ele>
        <time>2022-02-06T09:55:14Z</time>
      </trkpt>
      <trkpt lat="42.84473" lon="-0.35254">
        <ele>2024</ele>
        <time>2022-02-06T09:55:50Z</time>
      </trkpt>
      <trkpt lat="42.84469" lon="-0.3523">
        <ele>2008</ele>
        <time>2022-02-06T09:56:22Z</time>
      </trkpt>
      <trkpt lat="42.84463" lon="-0.35205">
        <ele>2015</ele>
        <time>2022-02-06T09:56:58Z</time>
      </trkpt>
      <trkpt lat="42.84467" lon="-0.35182">
        <ele>2023</ele>
        <time>2022-02-06T09:57:48Z</time>
      </trkpt>
      <trkpt lat="42.84472" lon="-0.35157">
        <ele>2035.9</ele>
        <time>2022-02-06T09:58:46Z</time>
      </trkpt>
      <trkpt lat="42.84474" lon="-0.35132">
        <ele>2054</ele>
        <time>2022-02-06T09:59:52Z</time>
      </trkpt>
      <trkpt lat="42.84469" lon="-0.35109">
        <ele>2048</ele>
        <time>2022-02-06T10:01:16Z</time>
      </trkpt>
      <trkpt lat="42.84463" lon="-0.35085">
        <ele>2048</ele>
        <time>2022-02-06T10:01:51Z</time>
      </trkpt>
      <trkpt lat="42.84466" lon="-0.35061">
        <ele>2057</ele>
        <time>2022-02-06T10:02:21Z</time>
      </trkpt>
      <trkpt lat="42.84465" lon="-0.35036">
        <ele>2060</ele>
        <time>2022-02-06T10:02:40Z</time>
      </trkpt>
      <trkpt lat="42.84465" lon="-0.35011">
        <ele>2065</ele>
        <time>2022-02-06T10:03:08Z</time>
      </trkpt>
      <trkpt lat="42.84466" lon="-0.34985">
        <ele>2068</ele>
        <time>2022-02-06T10:03:36Z</time>
      </trkpt>
      <trkpt lat="42.84469" lon="-0.34961">
        <ele>2073</ele>
        <time>2022-02-06T10:04:10Z</time>
      </trkpt>
      <trkpt lat="42.84475" lon="-0.34937">
        <ele>2093</ele>
        <time>2022-02-06T10:04:37Z</time>
      </trkpt>
      <trkpt lat="42.84483" lon="-0.34914">
        <ele>2091.05</ele>
        <time>2022-02-06T10:05:06Z</time>
      </trkpt>
      <trkpt lat="42.84485" lon="-0.3489">
        <ele>2091</ele>
        <time>2022-02-06T10:05:43Z</time>
      </trkpt>
      <trkpt lat="42.8448" lon="-0.34866">
        <ele>2092</ele>
        <time>2022-02-06T10:06:23Z</time>
      </trkpt>
      <trkpt lat="42.84476" lon="-0.34841">
        <ele>2095</ele>
        <time>2022-02-06T10:07:59Z</time>
      </trkpt>
      <trkpt lat="42.84477" lon="-0.34817">
        <ele>2098</ele>
        <time>2022-02-06T10:08:26Z</time>
      </trkpt>
      <trkpt lat="42.84481" lon="-0.34792">
        <ele>2100</ele>
        <time>2022-02-06T10:08:50Z</time>
      </trkpt>
      <trkpt lat="42.84491" lon="-0.34771">
        <ele>2100</ele>
        <time>2022-02-06T10:09:15Z</time>
      </trkpt>
      <trkpt lat="42.84498" lon="-0.34749">
        <ele>2098.18</ele>
        <time>2022-02-06T10:09:39Z</time>
      </trkpt>
      <trkpt lat="42.84507" lon="-0.34727">
        <ele>2113</ele>
        <time>2022-02-06T10:10:04Z</time>
      </trkpt>
      <trkpt lat="42.84514" lon="-0.34704">
        <ele>2110</ele>
        <time>2022-02-06T10:10:28Z</time>
      </trkpt>
      <trkpt lat="42.84521" lon="-0.3468">
        <ele>2109</ele>
        <time>2022-02-06T10:11:00Z</time>
      </trkpt>
      <trkpt lat="42.84531" lon="-0.34659">
        <ele>2129</ele>
        <time>2022-02-06T10:11:45Z</time>
      </trkpt>
      <trkpt lat="42.84534" lon="-0.34634">
        <ele>2131</ele>
        <time>2022-02-06T10:12:23Z</time>
      </trkpt>
      <trkpt lat="42.84548" lon="-0.34619">
        <ele>2131</ele>
        <time>2022-02-06T10:13:09Z</time>
      </trkpt>
      <trkpt lat="42.84554" lon="-0.34595">
        <ele>2131</ele>
        <time>2022-02-06T10:14:33Z</time>
      </trkpt>
      <trkpt lat="42.84568" lon="-0.3458">
        <ele>2154</ele>
        <time>2022-02-06T10:16:42Z</time>
      </trkpt>
      <trkpt lat="42.84583" lon="-0.34566">
        <ele>2160.3</ele>
        <time>2022-02-06T10:17:26Z</time>
      </trkpt>
      <trkpt lat="42.84598" lon="-0.34552">
        <ele>2166</ele>
        <time>2022-02-06T10:18:08Z</time>
      </trkpt>
      <trkpt lat="42.84616" lon="-0.34545">
        <ele>2170</ele>
        <time>2022-02-06T10:22:15Z</time>
      </trkpt>
      <trkpt lat="42.84635" lon="-0.34538">
        <ele>2170</ele>
        <time>2022-02-06T10:22:35Z</time>
      </trkpt>
      <trkpt lat="42.84653" lon="-0.3453">
        <ele>2181</ele>
        <time>2022-02-06T10:23:01Z</time>
      </trkpt>
      <trkpt lat="42.84671" lon="-0.34525">
        <ele>2182</ele>
        <time>2022-02-06T10:23:34Z</time>
      </trkpt>
      <trkpt lat="42.84688" lon="-0.34517">
        <ele>2182</ele>
        <time>2022-02-06T10:24:08Z</time>
      </trkpt>
      <trkpt lat="42.84706" lon="-0.3451">
        <ele>2193</ele>
        <time>2022-02-06T10:24:42Z</time>
      </trkpt>
      <trkpt lat="42.84721" lon="-0.34496">
        <ele>2187</ele>
        <time>2022-02-06T10:25:13Z</time>
      </trkpt>
      <trkpt lat="42.84734" lon="-0.34479">
        <ele>2206</ele>
        <time>2022-02-06T10:25:58Z</time>
      </trkpt>
      <trkpt lat="42.84749" lon="-0.34464">
        <ele>2199</ele>
        <time>2022-02-06T10:26:36Z</time>
      </trkpt>
      <trkpt lat="42.84761" lon="-0.34446">
        <ele>2217</ele>
        <time>2022-02-06T10:27:15Z</time>
      </trkpt>
      <trkpt lat="42.84774" lon="-0.34429">
        <ele>2212</ele>
        <time>2022-02-06T10:28:08Z</time>
      </trkpt>
      <trkpt lat="42.84787" lon="-0.34411">
        <ele>2226</ele>
        <time>2022-02-06T10:28:44Z</time>
      </trkpt>
      <trkpt lat="42.848" lon="-0.34394">
        <ele>2226</ele>
        <time>2022-02-06T10:29:33Z</time>
      </trkpt>
      <trkpt lat="42.84807" lon="-0.3437">
        <ele>2241.99</ele>
        <time>2022-02-06T10:30:25Z</time>
      </trkpt>
      <trkpt lat="42.84817" lon="-0.34349">
        <ele>2238</ele>
        <time>2022-02-06T10:30:55Z</time>
      </trkpt>
      <trkpt lat="42.84827" lon="-0.34329">
        <ele>2239</ele>
        <time>2022-02-06T10:31:27Z</time>
      </trkpt>
      <trkpt lat="42.84839" lon="-0.34309">
        <ele>2248</ele>
        <time>2022-02-06T10:32:05Z</time>
      </trkpt>
      <trkpt lat="42.84849" lon="-0.34288">
        <ele>2248</ele>
        <time>2022-02-06T10:33:14Z</time>
      </trkpt>
      <trkpt lat="42.84853" lon="-0.34264">
        <ele>2253</ele>
        <time>2022-02-06T10:33:56Z</time>
      </trkpt>
      <trkpt lat="42.8486" lon="-0.34241">
        <ele>2258</ele>
        <time>2022-02-06T10:34:23Z</time>
      </trkpt>
      <trkpt lat="42.84868" lon="-0.34218">
        <ele>2260</ele>
        <time>2022-02-06T10:37:18Z</time>
      </trkpt>
      <trkpt lat="42.84883" lon="-0.34231">
        <ele>2266</ele>
        <time>2022-02-06T10:45:46Z</time>
      </trkpt>
      <trkpt lat="42.84899" lon="-0.34243">
        <ele>2267</ele>
        <time>2022-02-06T10:46:12Z</time>
      </trkpt>
      <trkpt lat="42.84913" lon="-0.3426">
        <ele>2269</ele>
        <time>2022-02-06T10:46:43Z</time>
      </trkpt>
      <trkpt lat="42.84918" lon="-0.34283">
        <ele>2265</ele>
        <time>2022-02-06T10:47:10Z</time>
      </trkpt>
      <trkpt lat="42.84924" lon="-0.34306">
        <ele>2270.95</ele>
        <time>2022-02-06T10:47:37Z</time>
      </trkpt>
      <trkpt lat="42.84938" lon="-0.34325">
        <ele>2271</ele>
        <time>2022-02-06T10:48:03Z</time>
      </trkpt>
      <trkpt lat="42.84952" lon="-0.3434">
        <ele>2285</ele>
        <time>2022-02-06T10:48:30Z</time>
      </trkpt>
      <trkpt lat="42.84971" lon="-0.3434">
        <ele>2285</ele>
        <time>2022-02-06T10:48:53Z</time>
      </trkpt>
      <trkpt lat="42.84989" lon="-0.34335">
        <ele>2294</ele>
        <time>2022-02-06T10:49:24Z</time>
      </trkpt>
      <trkpt lat="42.85007" lon="-0.34341">
        <ele>2296</ele>
        <time>2022-02-06T10:50:14Z</time>
      </trkpt>
      <trkpt lat="42.85023" lon="-0.34351">
        <ele>2296</ele>
        <time>2022-02-06T10:50:45Z</time>
      </trkpt>
      <trkpt lat="42.85041" lon="-0.34356">
        <ele>2299</ele>
        <time>2022-02-06T10:51:30Z</time>
      </trkpt>
      <trkpt lat="42.85059" lon="-0.34362">
        <ele>2310</ele>
        <time>2022-02-06T10:52:02Z</time>
      </trkpt>
      <trkpt lat="42.85077" lon="-0.34369">
        <ele>2310</ele>
        <time>2022-02-06T10:52:39Z</time>
      </trkpt>
      <trkpt lat="42.85085" lon="-0.34392">
        <ele>2320.81</ele>
        <time>2022-02-06T10:54:06Z</time>
      </trkpt>
      <trkpt lat="42.851" lon="-0.34406">
        <ele>2321</ele>
        <time>2022-02-06T10:54:38Z</time>
      </trkpt>
      <trkpt lat="42.85117" lon="-0.34414">
        <ele>2337</ele>
        <time>2022-02-06T10:55:35Z</time>
      </trkpt>
      <trkpt lat="42.85134" lon="-0.34422">
        <ele>2348</ele>
        <time>2022-02-06T10:57:12Z</time>
      </trkpt>
      <trkpt lat="42.85127" lon="-0.34445">
        <ele>2362</ele>
        <time>2022-02-06T10:57:57Z</time>
      </trkpt>
      <trkpt lat="42.85116" lon="-0.34465">
        <ele>2368</ele>
        <time>2022-02-06T10:58:21Z</time>
      </trkpt>
      <trkpt lat="42.8511" lon="-0.34489">
        <ele>2357.7</ele>
        <time>2022-02-06T10:59:01Z</time>
      </trkpt>
      <trkpt lat="42.85098" lon="-0.34507">
        <ele>2365</ele>
        <time>2022-02-06T10:59:36Z</time>
      </trkpt>
      <trkpt lat="42.85085" lon="-0.34524">
        <ele>2365</ele>
        <time>2022-02-06T11:00:10Z</time>
      </trkpt>
      <trkpt lat="42.85067" lon="-0.34534">
        <ele>2365</ele>
        <time>2022-02-06T11:00:43Z</time>
      </trkpt>
      <trkpt lat="42.85074" lon="-0.34557">
        <ele>2373.76</ele>
        <time>2022-02-06T11:01:48Z</time>
      </trkpt>
      <trkpt lat="42.85072" lon="-0.34582">
        <ele>2374</ele>
        <time>2022-02-06T11:02:37Z</time>
      </trkpt>
      <trkpt lat="42.85075" lon="-0.34606">
        <ele>2378</ele>
        <time>2022-02-06T11:03:10Z</time>
      </trkpt>
      <trkpt lat="42.85084" lon="-0.34628">
        <ele>2394.92</ele>
        <time>2022-02-06T11:04:06Z</time>
      </trkpt>
      <trkpt lat="42.85091" lon="-0.34652">
        <ele>2401</ele>
        <time>2022-02-06T11:04:47Z</time>
      </trkpt>
      <trkpt lat="42.85088" lon="-0.34676">
        <ele>2406</ele>
        <time>2022-02-06T11:05:39Z</time>
      </trkpt>
      <trkpt lat="42.85085" lon="-0.34701">
        <ele>2415</ele>
        <time>2022-02-06T11:06:21Z</time>
      </trkpt>
      <trkpt lat="42.85085" lon="-0.34726">
        <ele>2427</ele>
        <time>2022-02-06T11:06:50Z</time>
      </trkpt>
      <trkpt lat="42.8508" lon="-0.34751">
        <ele>2419.6</ele>
        <time>2022-02-06T11:07:18Z</time>
      </trkpt>
      <trkpt lat="42.8508" lon="-0.34776">
        <ele>2422</ele>
        <time>2022-02-06T11:08:10Z</time>
      </trkpt>
      <trkpt lat="42.85079" lon="-0.348">
        <ele>2428</ele>
        <time>2022-02-06T11:08:50Z</time>
      </trkpt>
      <trkpt lat="42.85077" lon="-0.34825">
        <ele>2434</ele>
        <time>2022-02-06T11:09:25Z</time>
      </trkpt>
      <trkpt lat="42.85081" lon="-0.34849">
        <ele>2441</ele>
        <time>2022-02-06T11:10:03Z</time>
      </trkpt>
      <trkpt lat="42.85084" lon="-0.34873">
        <ele>2467</ele>
        <time>2022-02-06T11:10:41Z</time>
      </trkpt>
      <trkpt lat="42.85074" lon="-0.34893">
        <ele>2461.99</ele>
        <time>2022-02-06T11:11:11Z</time>
      </trkpt>
      <trkpt lat="42.85059" lon="-0.34909">
        <ele>2462</ele>
        <time>2022-02-06T11:11:46Z</time>
      </trkpt>
      <trkpt lat="42.85045" lon="-0.34925">
        <ele>2479</ele>
        <time>2022-02-06T11:13:41Z</time>
      </trkpt>
      <trkpt lat="42.85038" lon="-0.34947">
        <ele>2491</ele>
        <time>2022-02-06T11:17:27Z</time>
      </trkpt>
      <trkpt lat="42.85032" lon="-0.3497">
        <ele>2491</ele>
        <time>2022-02-06T11:20:16Z</time>
      </trkpt>
      <trkpt lat="42.8505" lon="-0.34971">
        <ele>2490.99</ele>
        <time>2022-02-06T11:24:06Z</time>
      </trkpt>
      <trkpt lat="42.85068" lon="-0.34973">
        <ele>2496.81</ele>
        <time>2022-02-06T11:25:09Z</time>
      </trkpt>
      <trkpt lat="42.85085" lon="-0.3498">
        <ele>2485</ele>
        <time>2022-02-06T11:26:57Z</time>
      </trkpt>
      <trkpt lat="42.85103" lon="-0.34975">
        <ele>2485</ele>
        <time>2022-02-06T11:28:28Z</time>
      </trkpt>
      <trkpt lat="42.8512" lon="-0.34962">
        <ele>2512</ele>
        <time>2022-02-06T11:46:06Z</time>
      </trkpt>
      <trkpt lat="42.85132" lon="-0.34981">
        <ele>2489.62</ele>
        <time>2022-02-06T11:46:13Z</time>
      </trkpt>
      <trkpt lat="42.85147" lon="-0.35002">
        <ele>2497.03</ele>
        <time>2022-02-06T11:46:17Z</time>
      </trkpt>
      <trkpt lat="42.85137" lon="-0.35025">
        <ele>2482.4</ele>
        <time>2022-02-06T11:46:28Z</time>
      </trkpt>
      <trkpt lat="42.85132" lon="-0.35052">
        <ele>2472.18</ele>
        <time>2022-02-06T11:46:32Z</time>
      </trkpt>
      <trkpt lat="42.85117" lon="-0.35067">
        <ele>2468.03</ele>
        <time>2022-02-06T11:46:37Z</time>
      </trkpt>
      <trkpt lat="42.8511" lon="-0.3509">
        <ele>2450.26</ele>
        <time>2022-02-06T11:46:41Z</time>
      </trkpt>
      <trkpt lat="42.85096" lon="-0.35109">
        <ele>2445.14</ele>
        <time>2022-02-06T11:46:44Z</time>
      </trkpt>
      <trkpt lat="42.85091" lon="-0.35141">
        <ele>2434.27</ele>
        <time>2022-02-06T11:46:47Z</time>
      </trkpt>
      <trkpt lat="42.85101" lon="-0.35165">
        <ele>2432</ele>
        <time>2022-02-06T12:18:22Z</time>
      </trkpt>
      <trkpt lat="42.85093" lon="-0.35189">
        <ele>2425</ele>
        <time>2022-02-06T12:19:44Z</time>
      </trkpt>
      <trkpt lat="42.85101" lon="-0.35219">
        <ele>2419.01</ele>
        <time>2022-02-06T12:19:50Z</time>
      </trkpt>
      <trkpt lat="42.85105" lon="-0.3525">
        <ele>2409.81</ele>
        <time>2022-02-06T12:19:55Z</time>
      </trkpt>
      <trkpt lat="42.85116" lon="-0.35277">
        <ele>2417.11</ele>
        <time>2022-02-06T12:19:59Z</time>
      </trkpt>
      <trkpt lat="42.85121" lon="-0.35307">
        <ele>2410.23</ele>
        <time>2022-02-06T12:20:03Z</time>
      </trkpt>
      <trkpt lat="42.85128" lon="-0.35332">
        <ele>2409</ele>
        <time>2022-02-06T12:20:08Z</time>
      </trkpt>
      <trkpt lat="42.85136" lon="-0.35358">
        <ele>2402.01</ele>
        <time>2022-02-06T12:20:14Z</time>
      </trkpt>
      <trkpt lat="42.85141" lon="-0.35382">
        <ele>2417</ele>
        <time>2022-02-06T12:21:17Z</time>
      </trkpt>
      <trkpt lat="42.85143" lon="-0.35408">
        <ele>2416</ele>
        <time>2022-02-06T12:21:30Z</time>
      </trkpt>
      <trkpt lat="42.85128" lon="-0.35423">
        <ele>2384.34</ele>
        <time>2022-02-06T12:21:37Z</time>
      </trkpt>
      <trkpt lat="42.85114" lon="-0.35441">
        <ele>2384</ele>
        <time>2022-02-06T12:21:44Z</time>
      </trkpt>
      <trkpt lat="42.85109" lon="-0.3547">
        <ele>2360.99</ele>
        <time>2022-02-06T12:21:49Z</time>
      </trkpt>
      <trkpt lat="42.85101" lon="-0.35497">
        <ele>2357.03</ele>
        <time>2022-02-06T12:21:53Z</time>
      </trkpt>
      <trkpt lat="42.85094" lon="-0.35525">
        <ele>2358.98</ele>
        <time>2022-02-06T12:21:57Z</time>
      </trkpt>
      <trkpt lat="42.85086" lon="-0.3555">
        <ele>2359</ele>
        <time>2022-02-06T12:22:01Z</time>
      </trkpt>
      <trkpt lat="42.8508" lon="-0.35575">
        <ele>2342</ele>
        <time>2022-02-06T12:22:15Z</time>
      </trkpt>
      <trkpt lat="42.8506" lon="-0.35581">
        <ele>2342</ele>
        <time>2022-02-06T12:22:22Z</time>
      </trkpt>
      <trkpt lat="42.85044" lon="-0.35569">
        <ele>2322.54</ele>
        <time>2022-02-06T12:22:26Z</time>
      </trkpt>
      <trkpt lat="42.85025" lon="-0.35563">
        <ele>2304.71</ele>
        <time>2022-02-06T12:22:32Z</time>
      </trkpt>
      <trkpt lat="42.85007" lon="-0.35559">
        <ele>2303</ele>
        <time>2022-02-06T12:22:37Z</time>
      </trkpt>
      <trkpt lat="42.84991" lon="-0.35538">
        <ele>2282.19</ele>
        <time>2022-02-06T12:22:44Z</time>
      </trkpt>
      <trkpt lat="42.84974" lon="-0.35529">
        <ele>2281.42</ele>
        <time>2022-02-06T12:23:41Z</time>
      </trkpt>
      <trkpt lat="42.84954" lon="-0.35547">
        <ele>2265.13</ele>
        <time>2022-02-06T12:23:45Z</time>
      </trkpt>
      <trkpt lat="42.84941" lon="-0.35574">
        <ele>2261.74</ele>
        <time>2022-02-06T12:23:48Z</time>
      </trkpt>
      <trkpt lat="42.84924" lon="-0.35562">
        <ele>2258.1</ele>
        <time>2022-02-06T12:23:51Z</time>
      </trkpt>
      <trkpt lat="42.84906" lon="-0.3555">
        <ele>2243.44</ele>
        <time>2022-02-06T12:23:54Z</time>
      </trkpt>
      <trkpt lat="42.84885" lon="-0.35561">
        <ele>2243.79</ele>
        <time>2022-02-06T12:23:57Z</time>
      </trkpt>
      <trkpt lat="42.84863" lon="-0.35556">
        <ele>2240.9</ele>
        <time>2022-02-06T12:24:51Z</time>
      </trkpt>
      <trkpt lat="42.84848" lon="-0.35529">
        <ele>2227.11</ele>
        <time>2022-02-06T12:24:55Z</time>
      </trkpt>
      <trkpt lat="42.84839" lon="-0.355">
        <ele>2216.3</ele>
        <time>2022-02-06T12:24:58Z</time>
      </trkpt>
      <trkpt lat="42.8482" lon="-0.35489">
        <ele>2206.28</ele>
        <time>2022-02-06T12:25:01Z</time>
      </trkpt>
      <trkpt lat="42.848" lon="-0.35484">
        <ele>2197.61</ele>
        <time>2022-02-06T12:25:04Z</time>
      </trkpt>
      <trkpt lat="42.84779" lon="-0.35475">
        <ele>2194.03</ele>
        <time>2022-02-06T12:25:08Z</time>
      </trkpt>
      <trkpt lat="42.84767" lon="-0.3545">
        <ele>2186.06</ele>
        <time>2022-02-06T12:25:12Z</time>
      </trkpt>
      <trkpt lat="42.84746" lon="-0.35441">
        <ele>2179.63</ele>
        <time>2022-02-06T12:25:16Z</time>
      </trkpt>
      <trkpt lat="42.84729" lon="-0.35451">
        <ele>2175.13</ele>
        <time>2022-02-06T12:25:19Z</time>
      </trkpt>
      <trkpt lat="42.8472" lon="-0.35427">
        <ele>2163.26</ele>
        <time>2022-02-06T12:26:11Z</time>
      </trkpt>
      <trkpt lat="42.84705" lon="-0.35411">
        <ele>2163</ele>
        <time>2022-02-06T12:26:18Z</time>
      </trkpt>
      <trkpt lat="42.84688" lon="-0.35398">
        <ele>2150.26</ele>
        <time>2022-02-06T12:26:23Z</time>
      </trkpt>
      <trkpt lat="42.84669" lon="-0.35383">
        <ele>2149.7</ele>
        <time>2022-02-06T12:26:29Z</time>
      </trkpt>
      <trkpt lat="42.84649" lon="-0.35381">
        <ele>2131.01</ele>
        <time>2022-02-06T12:26:36Z</time>
      </trkpt>
      <trkpt lat="42.84634" lon="-0.35363">
        <ele>2112.8</ele>
        <time>2022-02-06T12:28:30Z</time>
      </trkpt>
      <trkpt lat="42.84615" lon="-0.35362">
        <ele>2111.26</ele>
        <time>2022-02-06T12:28:37Z</time>
      </trkpt>
      <trkpt lat="42.84597" lon="-0.35369">
        <ele>2092.05</ele>
        <time>2022-02-06T12:28:43Z</time>
      </trkpt>
      <trkpt lat="42.84579" lon="-0.35375">
        <ele>2072.89</ele>
        <time>2022-02-06T12:28:48Z</time>
      </trkpt>
      <trkpt lat="42.8456" lon="-0.35382">
        <ele>2071</ele>
        <time>2022-02-06T12:28:54Z</time>
      </trkpt>
      <trkpt lat="42.8454" lon="-0.35392">
        <ele>2050.13</ele>
        <time>2022-02-06T12:29:01Z</time>
      </trkpt>
      <trkpt lat="42.84519" lon="-0.3539">
        <ele>2031.73</ele>
        <time>2022-02-06T12:29:07Z</time>
      </trkpt>
      <trkpt lat="42.84505" lon="-0.35406">
        <ele>2031</ele>
        <time>2022-02-06T12:29:15Z</time>
      </trkpt>
      <trkpt lat="42.84489" lon="-0.35418">
        <ele>2010.42</ele>
        <time>2022-02-06T12:30:21Z</time>
      </trkpt>
      <trkpt lat="42.84473" lon="-0.35436">
        <ele>2010.01</ele>
        <time>2022-02-06T12:30:24Z</time>
      </trkpt>
      <trkpt lat="42.84453" lon="-0.35444">
        <ele>1991.89</ele>
        <time>2022-02-06T12:30:28Z</time>
      </trkpt>
      <trkpt lat="42.84434" lon="-0.35459">
        <ele>1973.17</ele>
        <time>2022-02-06T12:30:32Z</time>
      </trkpt>
      <trkpt lat="42.84416" lon="-0.35473">
        <ele>1961.53</ele>
        <time>2022-02-06T12:30:35Z</time>
      </trkpt>
      <trkpt lat="42.84399" lon="-0.35475">
        <ele>1957.41</ele>
        <time>2022-02-06T12:30:37Z</time>
      </trkpt>
      <trkpt lat="42.84394" lon="-0.35505">
        <ele>1953.5</ele>
        <time>2022-02-06T12:31:28Z</time>
      </trkpt>
      <trkpt lat="42.84385" lon="-0.3553">
        <ele>1935.44</ele>
        <time>2022-02-06T12:31:32Z</time>
      </trkpt>
      <trkpt lat="42.84372" lon="-0.35549">
        <ele>1933.07</ele>
        <time>2022-02-06T12:31:35Z</time>
      </trkpt>
      <trkpt lat="42.84368" lon="-0.35574">
        <ele>1926.19</ele>
        <time>2022-02-06T12:31:39Z</time>
      </trkpt>
      <trkpt lat="42.84363" lon="-0.35598">
        <ele>1919.19</ele>
        <time>2022-02-06T12:31:42Z</time>
      </trkpt>
      <trkpt lat="42.84366" lon="-0.35623">
        <ele>1913.55</ele>
        <time>2022-02-06T12:31:45Z</time>
      </trkpt>
      <trkpt lat="42.84363" lon="-0.35649">
        <ele>1915.11</ele>
        <time>2022-02-06T12:31:48Z</time>
      </trkpt>
      <trkpt lat="42.84369" lon="-0.35677">
        <ele>1916.17</ele>
        <time>2022-02-06T12:31:51Z</time>
      </trkpt>
      <trkpt lat="42.84362" lon="-0.35701">
        <ele>1915.09</ele>
        <time>2022-02-06T12:31:54Z</time>
      </trkpt>
      <trkpt lat="42.84353" lon="-0.35723">
        <ele>1901.14</ele>
        <time>2022-02-06T12:31:57Z</time>
      </trkpt>
      <trkpt lat="42.84349" lon="-0.35756">
        <ele>1901.43</ele>
        <time>2022-02-06T12:32:00Z</time>
      </trkpt>
      <trkpt lat="42.84345" lon="-0.35784">
        <ele>1903.38</ele>
        <time>2022-02-06T12:32:03Z</time>
      </trkpt>
      <trkpt lat="42.8434" lon="-0.35813">
        <ele>1906.73</ele>
        <time>2022-02-06T12:32:08Z</time>
      </trkpt>
      <trkpt lat="42.84335" lon="-0.35843">
        <ele>1906.09</ele>
        <time>2022-02-06T12:32:36Z</time>
      </trkpt>
      <trkpt lat="42.84334" lon="-0.35869">
        <ele>1903.27</ele>
        <time>2022-02-06T12:32:40Z</time>
      </trkpt>
      <trkpt lat="42.8432" lon="-0.35887">
        <ele>1883.16</ele>
        <time>2022-02-06T12:32:44Z</time>
      </trkpt>
      <trkpt lat="42.8431" lon="-0.35921">
        <ele>1879.62</ele>
        <time>2022-02-06T12:32:48Z</time>
      </trkpt>
      <trkpt lat="42.84306" lon="-0.35949">
        <ele>1878.32</ele>
        <time>2022-02-06T12:32:51Z</time>
      </trkpt>
      <trkpt lat="42.84306" lon="-0.35978">
        <ele>1872.72</ele>
        <time>2022-02-06T12:32:55Z</time>
      </trkpt>
      <trkpt lat="42.84303" lon="-0.36006">
        <ele>1856.98</ele>
        <time>2022-02-06T12:33:02Z</time>
      </trkpt>
      <trkpt lat="42.84302" lon="-0.36031">
        <ele>1854.09</ele>
        <time>2022-02-06T12:33:09Z</time>
      </trkpt>
      <trkpt lat="42.84287" lon="-0.36048">
        <ele>1854</ele>
        <time>2022-02-06T12:33:17Z</time>
      </trkpt>
      <trkpt lat="42.84284" lon="-0.36077">
        <ele>1854</ele>
        <time>2022-02-06T12:33:32Z</time>
      </trkpt>
      <trkpt lat="42.84283" lon="-0.36101">
        <ele>1854</ele>
        <time>2022-02-06T12:33:35Z</time>
      </trkpt>
      <trkpt lat="42.84277" lon="-0.36125">
        <ele>1842.8</ele>
        <time>2022-02-06T12:33:41Z</time>
      </trkpt>
      <trkpt lat="42.8427" lon="-0.36155">
        <ele>1839.96</ele>
        <time>2022-02-06T12:33:46Z</time>
      </trkpt>
      <trkpt lat="42.84268" lon="-0.36185">
        <ele>1836.11</ele>
        <time>2022-02-06T12:33:51Z</time>
      </trkpt>
      <trkpt lat="42.84248" lon="-0.36167">
        <ele>1822</ele>
        <time>2022-02-06T12:34:02Z</time>
      </trkpt>
      <trkpt lat="42.84236" lon="-0.36193">
        <ele>1816.05</ele>
        <time>2022-02-06T12:34:06Z</time>
      </trkpt>
      <trkpt lat="42.84233" lon="-0.36221">
        <ele>1810.05</ele>
        <time>2022-02-06T12:34:10Z</time>
      </trkpt>
      <trkpt lat="42.84232" lon="-0.36248">
        <ele>1804.05</ele>
        <time>2022-02-06T12:34:14Z</time>
      </trkpt>
      <trkpt lat="42.84236" lon="-0.36274">
        <ele>1798.01</ele>
        <time>2022-02-06T12:34:19Z</time>
      </trkpt>
      <trkpt lat="42.84226" lon="-0.36297">
        <ele>1792.16</ele>
        <time>2022-02-06T12:34:23Z</time>
      </trkpt>
      <trkpt lat="42.8422" lon="-0.36323">
        <ele>1780.69</ele>
        <time>2022-02-06T12:34:26Z</time>
      </trkpt>
      <trkpt lat="42.84216" lon="-0.36352">
        <ele>1775.08</ele>
        <time>2022-02-06T12:34:30Z</time>
      </trkpt>
      <trkpt lat="42.84214" lon="-0.3638">
        <ele>1775</ele>
        <time>2022-02-06T12:34:35Z</time>
      </trkpt>
      <trkpt lat="42.8421" lon="-0.36409">
        <ele>1776.82</ele>
        <time>2022-02-06T12:34:38Z</time>
      </trkpt>
      <trkpt lat="42.84203" lon="-0.36433">
        <ele>1778</ele>
        <time>2022-02-06T12:35:15Z</time>
      </trkpt>
      <trkpt lat="42.84204" lon="-0.36458">
        <ele>1776</ele>
        <time>2022-02-06T12:35:32Z</time>
      </trkpt>
      <trkpt lat="42.84197" lon="-0.36481">
        <ele>1774</ele>
        <time>2022-02-06T12:35:54Z</time>
      </trkpt>
      <trkpt lat="42.84187" lon="-0.36504">
        <ele>1759.05</ele>
        <time>2022-02-06T12:36:12Z</time>
      </trkpt>
      <trkpt lat="42.84183" lon="-0.36534">
        <ele>1756.9</ele>
        <time>2022-02-06T12:37:38Z</time>
      </trkpt>
      <trkpt lat="42.8418" lon="-0.36564">
        <ele>1754.62</ele>
        <time>2022-02-06T12:37:41Z</time>
      </trkpt>
      <trkpt lat="42.84182" lon="-0.36593">
        <ele>1752.2</ele>
        <time>2022-02-06T12:37:44Z</time>
      </trkpt>
      <trkpt lat="42.84173" lon="-0.36621">
        <ele>1752.01</ele>
        <time>2022-02-06T12:37:47Z</time>
      </trkpt>
      <trkpt lat="42.84164" lon="-0.36647">
        <ele>1742.2</ele>
        <time>2022-02-06T12:37:50Z</time>
      </trkpt>
      <trkpt lat="42.84155" lon="-0.36676">
        <ele>1738.81</ele>
        <time>2022-02-06T12:37:53Z</time>
      </trkpt>
      <trkpt lat="42.84145" lon="-0.36704">
        <ele>1739.9</ele>
        <time>2022-02-06T12:37:56Z</time>
      </trkpt>
      <trkpt lat="42.84132" lon="-0.36732">
        <ele>1729.08</ele>
        <time>2022-02-06T12:37:59Z</time>
      </trkpt>
      <trkpt lat="42.84126" lon="-0.36759">
        <ele>1728.94</ele>
        <time>2022-02-06T12:38:02Z</time>
      </trkpt>
      <trkpt lat="42.84122" lon="-0.36785">
        <ele>1729.7</ele>
        <time>2022-02-06T12:38:05Z</time>
      </trkpt>
      <trkpt lat="42.84118" lon="-0.36809">
        <ele>1730</ele>
        <time>2022-02-06T12:38:09Z</time>
      </trkpt>
      <trkpt lat="42.84117" lon="-0.36836">
        <ele>1730</ele>
        <time>2022-02-06T12:38:15Z</time>
      </trkpt>
      <trkpt lat="42.84111" lon="-0.36866">
        <ele>1718.8</ele>
        <time>2022-02-06T12:38:20Z</time>
      </trkpt>
      <trkpt lat="42.84094" lon="-0.36877">
        <ele>1714.13</ele>
        <time>2022-02-06T12:38:23Z</time>
      </trkpt>
      <trkpt lat="42.84088" lon="-0.36901">
        <ele>1715.82</ele>
        <time>2022-02-06T12:38:26Z</time>
      </trkpt>
      <trkpt lat="42.84085" lon="-0.36926">
        <ele>1717.82</ele>
        <time>2022-02-06T12:38:29Z</time>
      </trkpt>
      <trkpt lat="42.84069" lon="-0.36942">
        <ele>1702.43</ele>
        <time>2022-02-06T12:38:32Z</time>
      </trkpt>
      <trkpt lat="42.84062" lon="-0.36965">
        <ele>1702.98</ele>
        <time>2022-02-06T12:38:35Z</time>
      </trkpt>
      <trkpt lat="42.84047" lon="-0.36989">
        <ele>1692.79</ele>
        <time>2022-02-06T12:38:39Z</time>
      </trkpt>
      <trkpt lat="42.84041" lon="-0.37012">
        <ele>1687.07</ele>
        <time>2022-02-06T12:38:43Z</time>
      </trkpt>
      <trkpt lat="42.84038" lon="-0.37039">
        <ele>1686.09</ele>
        <time>2022-02-06T12:38:47Z</time>
      </trkpt>
      <trkpt lat="42.84032" lon="-0.37066">
        <ele>1685.09</ele>
        <time>2022-02-06T12:38:51Z</time>
      </trkpt>
      <trkpt lat="42.84015" lon="-0.37084">
        <ele>1670.33</ele>
        <time>2022-02-06T12:39:01Z</time>
      </trkpt>
      <trkpt lat="42.84007" lon="-0.37107">
        <ele>1670</ele>
        <time>2022-02-06T12:39:05Z</time>
      </trkpt>
      <trkpt lat="42.84004" lon="-0.37136">
        <ele>1670</ele>
        <time>2022-02-06T12:39:09Z</time>
      </trkpt>
      <trkpt lat="42.84003" lon="-0.37162">
        <ele>1668.02</ele>
        <time>2022-02-06T12:39:13Z</time>
      </trkpt>
      <trkpt lat="42.83999" lon="-0.37188">
        <ele>1655.08</ele>
        <time>2022-02-06T12:39:19Z</time>
      </trkpt>
      <trkpt lat="42.83996" lon="-0.37215">
        <ele>1653</ele>
        <time>2022-02-06T12:39:25Z</time>
      </trkpt>
      <trkpt lat="42.83995" lon="-0.37243">
        <ele>1651</ele>
        <time>2022-02-06T12:39:41Z</time>
      </trkpt>
      <trkpt lat="42.83985" lon="-0.37264">
        <ele>1648.02</ele>
        <time>2022-02-06T12:39:46Z</time>
      </trkpt>
      <trkpt lat="42.83967" lon="-0.37283">
        <ele>1633.44</ele>
        <time>2022-02-06T12:39:51Z</time>
      </trkpt>
      <trkpt lat="42.83959" lon="-0.37307">
        <ele>1629.2</ele>
        <time>2022-02-06T12:39:57Z</time>
      </trkpt>
      <trkpt lat="42.83964" lon="-0.37333">
        <ele>1628</ele>
        <time>2022-02-06T12:40:03Z</time>
      </trkpt>
      <trkpt lat="42.83954" lon="-0.37354">
        <ele>1624.01</ele>
        <time>2022-02-06T12:40:08Z</time>
      </trkpt>
      <trkpt lat="42.8395" lon="-0.37378">
        <ele>1620.03</ele>
        <time>2022-02-06T12:40:14Z</time>
      </trkpt>
      <trkpt lat="42.83938" lon="-0.37401">
        <ele>1605.99</ele>
        <time>2022-02-06T12:40:22Z</time>
      </trkpt>
      <trkpt lat="42.83921" lon="-0.37418">
        <ele>1602.71</ele>
        <time>2022-02-06T12:40:28Z</time>
      </trkpt>
      <trkpt lat="42.83908" lon="-0.37437">
        <ele>1592.09</ele>
        <time>2022-02-06T12:40:32Z</time>
      </trkpt>
      <trkpt lat="42.83903" lon="-0.37461">
        <ele>1588.03</ele>
        <time>2022-02-06T12:40:37Z</time>
      </trkpt>
      <trkpt lat="42.83901" lon="-0.37491">
        <ele>1582.16</ele>
        <time>2022-02-06T12:40:41Z</time>
      </trkpt>
      <trkpt lat="42.83908" lon="-0.37516">
        <ele>1576.16</ele>
        <time>2022-02-06T12:40:45Z</time>
      </trkpt>
      <trkpt lat="42.83899" lon="-0.37537">
        <ele>1573</ele>
        <time>2022-02-06T12:40:57Z</time>
      </trkpt>
      <trkpt lat="42.83881" lon="-0.37542">
        <ele>1570</ele>
        <time>2022-02-06T12:42:06Z</time>
      </trkpt>
      <trkpt lat="42.83883" lon="-0.37567">
        <ele>1567</ele>
        <time>2022-02-06T12:42:24Z</time>
      </trkpt>
      <trkpt lat="42.83881" lon="-0.37592">
        <ele>1563</ele>
        <time>2022-02-06T12:42:47Z</time>
      </trkpt>
      <trkpt lat="42.83879" lon="-0.37617">
        <ele>1559.03</ele>
        <time>2022-02-06T12:43:39Z</time>
      </trkpt>
      <trkpt lat="42.83874" lon="-0.37642">
        <ele>1556.27</ele>
        <time>2022-02-06T12:43:51Z</time>
      </trkpt>
      <trkpt lat="42.83873" lon="-0.37667">
        <ele>1553.2</ele>
        <time>2022-02-06T12:43:57Z</time>
      </trkpt>
      <trkpt lat="42.83869" lon="-0.37693">
        <ele>1552</ele>
        <time>2022-02-06T12:44:02Z</time>
      </trkpt>
      <trkpt lat="42.83862" lon="-0.37716">
        <ele>1546</ele>
        <time>2022-02-06T12:44:34Z</time>
      </trkpt>
      <trkpt lat="42.83861" lon="-0.37741">
        <ele>1549.6</ele>
        <time>2022-02-06T12:44:54Z</time>
      </trkpt>
      <trkpt lat="42.83853" lon="-0.37763">
        <ele>1547</ele>
        <time>2022-02-06T12:45:23Z</time>
      </trkpt>
      <trkpt lat="42.83846" lon="-0.37786">
        <ele>1540.63</ele>
        <time>2022-02-06T12:45:31Z</time>
      </trkpt>
      <trkpt lat="42.83841" lon="-0.37814">
        <ele>1535.14</ele>
        <time>2022-02-06T12:45:40Z</time>
      </trkpt>
      <trkpt lat="42.83831" lon="-0.37837">
        <ele>1543.66</ele>
        <time>2022-02-06T12:45:48Z</time>
      </trkpt>
      <trkpt lat="42.83831" lon="-0.37862">
        <ele>1539.4</ele>
        <time>2022-02-06T12:46:02Z</time>
      </trkpt>
      <trkpt lat="42.83831" lon="-0.37888">
        <ele>1535.69</ele>
        <time>2022-02-06T12:46:08Z</time>
      </trkpt>
      <trkpt lat="42.8383" lon="-0.37914">
        <ele>1529</ele>
        <time>2022-02-06T12:46:28Z</time>
      </trkpt>
      <trkpt lat="42.83824" lon="-0.37939">
        <ele>1522.01</ele>
        <time>2022-02-06T12:46:34Z</time>
      </trkpt>
      <trkpt lat="42.83824" lon="-0.37965">
        <ele>1516</ele>
        <time>2022-02-06T12:46:47Z</time>
      </trkpt>
      <trkpt lat="42.83818" lon="-0.3799">
        <ele>1512.01</ele>
        <time>2022-02-06T12:46:55Z</time>
      </trkpt>
      <trkpt lat="42.83812" lon="-0.38014">
        <ele>1507</ele>
        <time>2022-02-06T12:47:09Z</time>
      </trkpt>
      <trkpt lat="42.83827" lon="-0.38029">
        <ele>1502</ele>
        <time>2022-02-06T12:51:13Z</time>
      </trkpt>
      <trkpt lat="42.83819" lon="-0.38051">
        <ele>1502</ele>
        <time>2022-02-06T12:51:45Z</time>
      </trkpt>
      <trkpt lat="42.83809" lon="-0.38072">
        <ele>1496</ele>
        <time>2022-02-06T12:52:07Z</time>
      </trkpt>
      <trkpt lat="42.83801" lon="-0.38095">
        <ele>1493</ele>
        <time>2022-02-06T12:52:28Z</time>
      </trkpt>
      <trkpt lat="42.83787" lon="-0.38111">
        <ele>1493</ele>
        <time>2022-02-06T12:52:52Z</time>
      </trkpt>
      <trkpt lat="42.83768" lon="-0.38117">
        <ele>1481</ele>
        <time>2022-02-06T12:53:14Z</time>
      </trkpt>
      <trkpt lat="42.83754" lon="-0.38132">
        <ele>1481</ele>
        <time>2022-02-06T12:53:29Z</time>
      </trkpt>
      <trkpt lat="42.83741" lon="-0.38149">
        <ele>1467</ele>
        <time>2022-02-06T12:53:50Z</time>
      </trkpt>
      <trkpt lat="42.83733" lon="-0.38172">
        <ele>1456.01</ele>
        <time>2022-02-06T12:54:07Z</time>
      </trkpt>
      <trkpt lat="42.83716" lon="-0.38164">
        <ele>1466.89</ele>
        <time>2022-02-06T12:54:24Z</time>
      </trkpt>
      <trkpt lat="42.83698" lon="-0.38167">
        <ele>1467</ele>
        <time>2022-02-06T12:54:48Z</time>
      </trkpt>
      <trkpt lat="42.83688" lon="-0.38187">
        <ele>1451</ele>
        <time>2022-02-06T12:55:43Z</time>
      </trkpt>
      <trkpt lat="42.8367" lon="-0.38197">
        <ele>1434.04</ele>
        <time>2022-02-06T12:55:59Z</time>
      </trkpt>
      <trkpt lat="42.83653" lon="-0.38209">
        <ele>1435</ele>
        <time>2022-02-06T12:56:22Z</time>
      </trkpt>
      <trkpt lat="42.83636" lon="-0.38219">
        <ele>1438.99</ele>
        <time>2022-02-06T12:56:45Z</time>
      </trkpt>
      <trkpt lat="42.8362" lon="-0.38231">
        <ele>1425</ele>
        <time>2022-02-06T12:57:11Z</time>
      </trkpt>
      <trkpt lat="42.8361" lon="-0.38251">
        <ele>1422.34</ele>
        <time>2022-02-06T12:57:41Z</time>
      </trkpt>
      <trkpt lat="42.83605" lon="-0.38274">
        <ele>1420</ele>
        <time>2022-02-06T12:58:11Z</time>
      </trkpt>
      <trkpt lat="42.83605" lon="-0.38299">
        <ele>1411</ele>
        <time>2022-02-06T12:58:32Z</time>
      </trkpt>
      <trkpt lat="42.83618" lon="-0.38318">
        <ele>1402</ele>
        <time>2022-02-06T12:59:03Z</time>
      </trkpt>
      <trkpt lat="42.83622" lon="-0.38342">
        <ele>1397</ele>
        <time>2022-02-06T12:59:24Z</time>
      </trkpt>
    </trkseg>
  </trk>
</gpx>